Flight Track Log - Related Links

Times and Time Zones

All times are in EDT time to prevent confusion due to time zone crossing. See the AAL1459 flight status page for this flight to view local times or setup timezone preferences in your user account.

Time Position Orientation Groundspeed Altitude Reporting Facility
EDT Latitude Longitude Course Direction KTS MPH feet Rate Location/Type
Thu 07:55:33 PM 41.9410 -87.9140 222° Southwest 158 182 2,300  Level FlightAware ADS-B
Thu 07:56:03 PM 41.9230 -87.9350 221° Southwest 193 222 3,100 1,600 Climbing FlightAware ADS-B
Thu 07:56:33 PM 41.8990 -87.9620 220° Southwest 236 272 3,900 1,964 Climbing FlightAware ADS-B
Thu 07:56:58 PM 41.8810 -87.9880 227° Southwest 249 287 4,900 2,100 Climbing FlightAware ADS-B
Thu 07:57:13 PM 41.8760 -88.0130 255° West 252 290 5,300 533 Climbing FlightAware ADS-B
Thu 07:57:43 PM 41.8860 -88.0580 287° West 259 298 5,300 133 Level FlightAware ADS-B
Thu 07:57:58 PM 41.8920 -88.0760 294° West 259 298 5,400 1,500 Climbing FlightAware ADS-B
Thu 07:58:23 PM 41.9050 -88.1150 294° West 265 305 6,300 2,509 Climbing FlightAware ADS-B
Thu 07:58:53 PM 41.9200 -88.1610 294° West 278 320 7,700 3,000 Climbing FlightAware ADS-B
Thu 07:59:13 PM 41.9310 -88.1950 294° West 285 328 8,800 2,914 Climbing FlightAware ADS-B
Thu 08:00:03 PM 41.9600 -88.2760 296° West 303 349 11,100 2,267 Climbing FlightAware ADS-B
Thu 08:00:43 PM 41.9840 -88.3420 296° West 334 384 12,200 1,950 Climbing FlightAware ADS-B
Thu 08:01:23 PM 42.0130 -88.4230 296° West 360 414 13,700 2,753 Climbing FlightAware ADS-B
Thu 08:02:08 PM 42.0430 -88.5090 295° West 349 402 16,100 3,035 Climbing FlightAware ADS-B
Thu 08:02:48 PM 42.0730 -88.5960 295° West 356 410 18,000 2,743 Climbing FlightAware ADS-B
Thu 08:03:18 PM 42.0870 -88.6580 287° West 340 391 19,300 2,677 Climbing FlightAware ADS-B
Thu 08:03:53 PM 42.0930 -88.7300 276° West 341 392 20,900 2,400 Climbing FlightAware ADS-B
Thu 08:04:43 PM 42.1010 -88.8320 276° West 345 397 22,700 2,267 Climbing FlightAware ADS-B
Thu 08:05:23 PM 42.1100 -88.9220 278° West 346 398 24,300 2,047 Climbing FlightAware ADS-B
Thu 08:06:08 PM 42.1220 -89.0200 279° West 356 410 25,600 1,694 Climbing FlightAware ADS-B
Thu 08:06:48 PM 42.1340 -89.1040 281° West 363 418 26,700 1,725 Climbing FlightAware ADS-B
Thu 08:07:28 PM 42.1430 -89.1950 278° West 354 407 27,900 1,412 Climbing FlightAware ADS-B
Thu 08:08:13 PM 42.1450 -89.2920 272° West 367 422 28,700 1,129 Climbing FlightAware ADS-B
Thu 08:08:53 PM 42.1470 -89.3890 272° West 378 435 29,500 1,200 Climbing FlightAware ADS-B
Thu 08:09:38 PM 42.1510 -89.5010 273° West 390 449 30,400 1,129 Climbing FlightAware ADS-B
Thu 08:10:18 PM 42.1550 -89.5970 273° West 398 458 31,100 1,125 Climbing FlightAware ADS-B
Thu 08:10:58 PM 42.1610 -89.6980 275° West 403 464 31,900 1,271 Climbing FlightAware ADS-B
Thu 08:11:43 PM 42.1670 -89.8110 274° West 403 464 32,900 1,200 Climbing FlightAware ADS-B
Thu 08:12:23 PM 42.1850 -89.9100 284° West 428 493 33,600 1,275 Climbing FlightAware ADS-B
Thu 08:13:03 PM 42.1950 -90.0090 278° West 405 466 34,600 1,553 Climbing FlightAware ADS-B
Thu 08:13:48 PM 42.2010 -90.1250 274° West 396 456 35,800 1,271 Climbing FlightAware ADS-B
Thu 08:14:28 PM 42.2070 -90.2240 275° West 396 456 36,400 706 Climbing FlightAware ADS-B
Thu 08:15:13 PM 42.2120 -90.3190 274° West 396 456 36,800 565 Climbing FlightAware ADS-B
Thu 08:15:53 PM 42.2170 -90.4310 273° West 400 460 37,200 565 Climbing FlightAware ADS-B
Thu 08:16:38 PM 42.2230 -90.5460 274° West 404 465 37,600 494 Climbing FlightAware ADS-B
Thu 08:17:18 PM 42.2280 -90.6430 274° West 405 466 37,900 300 Climbing FlightAware ADS-B
Thu 08:17:58 PM 42.2320 -90.7330 273° West 401 461 38,000 71 Climbing FlightAware ADS-B
Thu 08:18:43 PM 42.2380 -90.8590 274° West 398 458 38,000  Level FlightAware ADS-B
Thu 08:19:23 PM 42.2420 -90.9570 273° West 398 458 38,000  Level FlightAware ADS-B
Thu 08:20:08 PM 42.2470 -91.0690 273° West 398 458 38,000  Level FlightAware ADS-B
Thu 08:20:48 PM 42.2510 -91.1680 273° West 400 460 38,000  Level FlightAware ADS-B
Thu 08:21:28 PM 42.2550 -91.2680 273° West 402 463 38,000  Level FlightAware ADS-B
Thu 08:22:13 PM 42.2610 -91.3840 274° West 403 464 38,000  Level FlightAware ADS-B
Thu 08:22:48 PM 42.2640 -91.4590 273° West 403 464 38,000  Level FlightAware ADS-B
Thu 08:23:38 PM 42.2700 -91.5910 274° West 402 463 38,000  Level FlightAware ADS-B
Thu 08:24:33 PM 42.2750 -91.7250 273° West 400 460 38,000  Level FlightAware ADS-B
Thu 08:25:13 PM 42.2780 -91.8200 272° West 400 460 38,000  Level FlightAware ADS-B
Thu 08:25:53 PM 42.2820 -91.9160 273° West 400 460 38,000  Level FlightAware ADS-B
Thu 08:26:33 PM 42.2850 -92.0190 272° West 401 461 38,000  Level FlightAware ADS-B
Thu 08:27:48 PM 42.2920 -92.2090 273° West 404 465 38,000  Level FlightAware ADS-B
Thu 08:28:28 PM 42.2960 -92.3100 273° West 403 464 38,000  Level FlightAware ADS-B
Thu 08:29:13 PM 42.2990 -92.4170 272° West 403 464 38,000  Level FlightAware ADS-B
Thu 08:29:53 PM 42.3020 -92.5290 272° West 402 463 38,000  Level FlightAware ADS-B
Thu 08:30:48 PM 42.3060 -92.6590 272° West 403 464 38,000  Level FlightAware ADS-B
Thu 08:31:28 PM 42.3090 -92.7630 272° West 402 463 38,000  Level FlightAware ADS-B
Thu 08:32:08 PM 42.3120 -92.8520 273° West 401 461 38,000  Level FlightAware ADS-B
Thu 08:32:53 PM 42.3150 -92.9500 272° West 401 461 38,000  Level FlightAware ADS-B
Thu 08:33:38 PM 42.3190 -93.0890 272° West 407 468 38,000  Level FlightAware ADS-B
Thu 08:34:18 PM 42.3220 -93.1940 272° West 413 475 38,000  Level FlightAware ADS-B
Thu 08:34:58 PM 42.3230 -93.2830 271° West 413 475 38,000  Level FlightAware ADS-B
Thu 08:35:38 PM 42.3240 -93.3710 271° West 413 475 38,000  Level FlightAware ADS-B
Thu 08:36:18 PM 42.3250 -93.4590 271° West 413 475 38,000  Level FlightAware ADS-B
Thu 08:37:23 PM 42.3320 -93.6640 273° West 417 480 38,000  Level FlightAware ADS-B
Thu 08:38:03 PM 42.3350 -93.7740 272° West 416 479 38,000  Level FlightAware ADS-B
Thu 08:38:43 PM 42.3360 -93.8630 271° West 416 479 38,000  Level FlightAware ADS-B
Thu 08:39:23 PM 42.3380 -93.9520 272° West 416 479 38,000  Level FlightAware ADS-B
Thu 08:40:03 PM 42.3390 -94.0400 271° West 416 479 38,000  Level FlightAware ADS-B
Thu 08:40:53 PM 42.3400 -94.1510 271° West 416 479 38,000  Level FlightAware ADS-B
Thu 08:41:33 PM 42.3410 -94.2390 271° West 416 479 38,000  Level FlightAware ADS-B
Thu 08:42:13 PM 42.3420 -94.3280 271° West 416 479 38,000  Level FlightAware ADS-B
Thu 08:42:53 PM 42.3430 -94.4160 271° West 416 479 38,000  Level FlightAware ADS-B
Thu 08:43:33 PM 42.3450 -94.5050 272° West 416 479 38,000  Level FlightAware ADS-B
Thu 08:44:13 PM 42.3460 -94.5930 271° West 416 479 38,000  Level FlightAware ADS-B
Thu 08:45:03 PM 42.3470 -94.7040 271° West 416 479 38,000  Level FlightAware ADS-B
Thu 08:45:43 PM 42.3480 -94.7920 271° West 416 479 38,000  Level FlightAware ADS-B
Thu 08:46:23 PM 42.3490 -94.8810 271° West 416 479 38,000  Level FlightAware ADS-B
Thu 08:47:03 PM 42.3510 -94.9700 272° West 416 479 38,000  Level FlightAware ADS-B
Thu 08:47:53 PM 42.3520 -95.0800 271° West 416 479 38,000  Level FlightAware ADS-B
Thu 08:49:05 PM 42.3447 -95.4947 271° West 423 487 38,000  Level Minneapolis Center
Thu 08:50:07 PM 42.3008 -95.6444 248° West 429 494 38,000  Level Minneapolis Center
Thu 08:51:08 PM 42.2617 -95.8228 254° West 422 486 38,000  Level Minneapolis Center
Thu 08:52:10 PM 42.2619 -95.9847 270° West 432 497 38,000  Level Minneapolis Center
Thu 08:53:12 PM 42.2631 -96.1456 271° West 431 496 38,000  Level Minneapolis Center
Thu 08:54:14 PM 42.2636 -96.3050 270° West 430 495 38,000  Level Minneapolis Center
Thu 08:55:16 PM 42.2633 -96.4658 270° West 430 495 38,000  Level Minneapolis Center
Thu 08:56:18 PM 42.2636 -96.6250 270° West 427 491 38,000  Level Minneapolis Center
Thu 08:57:20 PM 42.2639 -96.8161 270° West 427 491 38,000  Level Minneapolis Center
Thu 08:58:21 PM 42.2636 -96.9739 270° West 424 488 38,000  Level Minneapolis Center
Thu 08:59:23 PM 42.2625 -97.1319 270° West 423 487 38,000  Level Minneapolis Center
Thu 09:00:25 PM 42.2614 -97.2889 270° West 420 483 38,000  Level Minneapolis Center
Thu 09:01:27 PM 42.2611 -97.4453 270° West 419 482 38,000  Level Minneapolis Center
Thu 09:02:29 PM 42.2594 -97.6014 269° West 417 480 38,000  Level Minneapolis Center
Thu 09:03:31 PM 42.2586 -97.7889 270° West 418 481 38,000  Level Minneapolis Center
Thu 09:04:33 PM 42.2558 -97.9508 269° West 415 478 38,000  Level Minneapolis Center
Thu 09:05:35 PM 42.2539 -98.1083 269° West 419 482 38,000  Level Minneapolis Center
Thu 09:06:37 PM 42.2519 -98.2633 269° West 416 479 38,000  Level Minneapolis Center
Thu 09:07:38 PM 42.2497 -98.4169 269° West 411 473 38,000  Level Minneapolis Center
Thu 09:08:40 PM 42.2472 -98.5672 269° West 405 466 38,000  Level Minneapolis Center
Thu 09:09:42 PM 42.2447 -98.7181 269° West 403 464 38,000  Level Minneapolis Center
Thu 09:10:44 PM 42.2408 -98.8981 268° West 402 463 38,000  Level Minneapolis Center
Thu 09:11:46 PM 42.2386 -99.0467 269° West 399 459 38,000  Level Minneapolis Center
Thu 09:12:48 PM 42.2353 -99.1975 268° West 402 463 38,000  Level Minneapolis Center
Thu 09:13:50 PM 42.2319 -99.3464 268° West 400 460 38,000  Level Minneapolis Center
Thu 09:14:52 PM 42.2286 -99.4956 268° West 399 459 38,000  Level Minneapolis Center
Thu 09:15:54 PM 42.2250 -99.6467 268° West 402 463 38,000  Level Minneapolis Center
Thu 09:16:49 PM 42.2189 -99.8100 267° West 403 464 38,000  Level Denver Center
Thu 09:17:51 PM 42.2150 -99.9575 268° West 409 471 38,000  Level Denver Center
Thu 09:18:53 PM 42.2108 -100.1042 268° West 411 473 38,000  Level Denver Center
Thu 09:19:55 PM 42.2047 -100.2764 267° West 414 476 38,000  Level Denver Center
Thu 09:20:57 PM 42.2006 -100.4242 268° West 415 478 38,000  Level Denver Center
Thu 09:21:59 PM 42.1947 -100.5997 267° West 418 481 38,000  Level Denver Center
Thu 09:23:00 PM 42.1894 -100.7461 267° West 413 475 38,000  Level Denver Center
Thu 09:24:02 PM 42.1833 -100.9169 267° West 409 471 38,000  Level Denver Center
Thu 09:25:04 PM 42.1783 -101.0656 267° West 414 476 38,000  Level Denver Center
Thu 09:30:45 PM 42.1383 -101.9860 267° West 425 489 38,000  Level FlightAware ADS-B
Thu 09:31:16 PM 42.1345 -102.0670 266° West 427 491 38,000  Level FlightAware ADS-B
Thu 09:31:47 PM 42.1306 -102.1480 266° West 428 493 38,000  Level FlightAware ADS-B
Thu 09:32:18 PM 42.1266 -102.2310 266° West 428 493 38,000  Level FlightAware ADS-B
Thu 09:32:50 PM 42.1225 -102.3150 266° West 428 493 38,000  Level FlightAware ADS-B
Thu 09:33:20 PM 42.1183 -102.3960 266° West 425 489 38,000  Level FlightAware ADS-B
Thu 09:33:50 PM 42.1143 -102.4750 266° West 424 488 38,000  Level FlightAware ADS-B
Thu 09:34:20 PM 42.1103 -102.5530 266° West 423 487 38,000  Level FlightAware ADS-B
Thu 09:34:52 PM 42.1061 -102.6380 266° West 424 488 38,000  Level FlightAware ADS-B
Thu 09:35:24 PM 42.1018 -102.7220 266° West 425 489 38,000  Level FlightAware ADS-B
Thu 09:35:54 PM 42.0975 -102.8010 266° West 425 489 38,000  Level FlightAware ADS-B
Thu 09:36:24 PM 42.0931 -102.8800 266° West 425 489 38,000  Level FlightAware ADS-B
Thu 09:36:57 PM 42.0883 -102.9650 266° West 425 489 38,000  Level FlightAware ADS-B
Thu 09:37:28 PM 42.0838 -103.0460 266° West 424 488 38,000  Level FlightAware ADS-B
Thu 09:37:58 PM 42.0794 -103.1250 266° West 424 488 38,000  Level FlightAware ADS-B
Thu 09:38:28 PM 42.0749 -103.2050 266° West 423 487 38,000  Level FlightAware ADS-B
Thu 09:38:59 PM 42.0704 -103.2850 266° West 421 484 38,000  Level FlightAware ADS-B
Thu 09:39:32 PM 42.0654 -103.3700 265° West 419 482 38,000  Level FlightAware ADS-B
Thu 09:40:03 PM 42.0604 -103.4520 265° West 419 482 38,000  Level FlightAware ADS-B
Thu 09:40:38 PM 42.0549 -103.5420 265° West 416 479 38,000  Level FlightAware ADS-B
Thu 09:41:13 PM 42.0494 -103.6310 265° West 415 478 38,000  Level FlightAware ADS-B
Thu 09:41:44 PM 42.0445 -103.7110 265° West 413 475 38,000  Level FlightAware ADS-B
Thu 09:42:15 PM 42.0398 -103.7890 265° West 411 473 38,000  Level FlightAware ADS-B
Thu 09:42:45 PM 42.0350 -103.8670 265° West 410 472 38,000  Level FlightAware ADS-B
Thu 09:43:15 PM 42.0300 -103.9440 265° West 409 471 38,000  Level FlightAware ADS-B
Thu 09:43:46 PM 42.0249 -104.0200 265° West 407 468 38,000  Level FlightAware ADS-B
Thu 09:44:16 PM 42.0201 -104.0960 265° West 407 468 38,000  Level FlightAware ADS-B
Thu 09:44:46 PM 42.0151 -104.1730 265° West 410 472 38,000  Level FlightAware ADS-B
Thu 09:45:17 PM 42.0099 -104.2500 265° West 411 473 38,000  Level FlightAware ADS-B
Thu 09:45:48 PM 42.0048 -104.3280 265° West 409 471 38,000  Level FlightAware ADS-B
Thu 09:46:20 PM 41.9994 -104.4090 265° West 411 473 38,000  Level FlightAware ADS-B
Thu 09:46:51 PM 41.9938 -104.4870 265° West 412 474 38,000  Level FlightAware ADS-B
Thu 09:47:26 PM 41.9874 -104.5780 265° West 410 472 38,000  Level FlightAware ADS-B
Thu 09:47:57 PM 41.9822 -104.6540 265° West 409 471 38,000  Level FlightAware ADS-B
Thu 09:48:28 PM 41.9769 -104.7320 265° West 406 467 38,000  Level FlightAware ADS-B
Thu 09:48:58 PM 41.9715 -104.8090 265° West 406 467 38,000  Level FlightAware ADS-B
Thu 09:49:29 PM 41.9660 -104.8850 264° West 410 472 38,000  Level FlightAware ADS-B
Thu 09:49:59 PM 41.9604 -104.9620 264° West 412 474 38,000  Level FlightAware ADS-B
Thu 09:50:30 PM 41.9545 -105.0420 264° West 412 474 38,000  Level FlightAware ADS-B
Thu 09:51:02 PM 41.9485 -105.1230 264° West 414 476 38,000  Level FlightAware ADS-B
Thu 09:51:35 PM 41.9423 -105.2060 264° West 418 481 38,000  Level FlightAware ADS-B
Thu 09:52:32 PM 41.9310 -105.3540 264° West 419 482 38,000  Level FlightAware ADS-B
Thu 09:53:33 PM 41.9200 -105.5000 264° West 419 482 38,000  Level FlightAware ADS-B
Thu 09:54:18 PM 41.9110 -105.6080 264° West 419 482 38,000  Level FlightAware ADS-B
Thu 09:55:18 PM 41.8980 -105.7680 264° West 416 479 38,000  Level FlightAware ADS-B
Thu 09:56:03 PM 41.8890 -105.8890 264° West 414 476 38,000  Level FlightAware ADS-B
Thu 09:56:43 PM 41.8810 -105.9910 264° West 414 476 38,000  Level FlightAware ADS-B
Thu 09:57:23 PM 41.8720 -106.0960 263° West 415 478 38,000  Level FlightAware ADS-B
Thu 09:58:08 PM 41.8620 -106.2120 263° West 417 480 38,000  Level FlightAware ADS-B
Thu 09:58:48 PM 41.8540 -106.3130 264° West 418 481 38,000  Level FlightAware ADS-B
Thu 09:59:38 PM 41.8430 -106.4340 263° West 418 481 38,000  Level FlightAware ADS-B
Thu 10:00:43 PM 41.8290 -106.5950 263° West 417 480 38,000  Level FlightAware ADS-B
Thu 10:01:23 PM 41.8210 -106.6820 263° West 417 480 38,000  Level FlightAware ADS-B
Thu 10:02:03 PM 41.8130 -106.7700 263° West 417 480 38,000  Level FlightAware ADS-B
Thu 10:02:43 PM 41.8050 -106.8570 263° West 417 480 38,000  Level FlightAware ADS-B
Thu 10:03:23 PM 41.7970 -106.9440 263° West 417 480 38,000  Level FlightAware ADS-B
Thu 10:04:03 PM 41.7890 -107.0320 263° West 417 480 38,000  Level FlightAware ADS-B
Thu 10:04:53 PM 41.7790 -107.1410 263° West 417 480 38,000  Level FlightAware ADS-B
Thu 10:05:33 PM 41.7710 -107.2280 263° West 417 480 38,000  Level FlightAware ADS-B
Thu 10:06:13 PM 41.7630 -107.3150 263° West 417 480 38,000  Level FlightAware ADS-B
Thu 10:06:53 PM 41.7550 -107.4030 263° West 417 480 38,000  Level FlightAware ADS-B
Thu 10:07:33 PM 41.7470 -107.4900 263° West 417 480 38,000  Level FlightAware ADS-B
Thu 10:08:23 PM 41.7370 -107.5990 263° West 417 480 38,000  Level FlightAware ADS-B
Thu 10:09:03 PM 41.7290 -107.6860 263° West 417 480 38,000  Level FlightAware ADS-B
Thu 10:09:43 PM 41.7210 -107.7730 263° West 417 480 38,000  Level FlightAware ADS-B
Thu 10:10:32 PM 41.6861 -108.1136 263° West 428 493 38,000  Level Salt Lake Center
Thu 10:11:34 PM 41.6703 -108.2622 262° West 424 488 38,000  Level Salt Lake Center
Thu 10:12:36 PM 41.6522 -108.4403 262° West 431 496 38,000  Level Salt Lake Center
Thu 10:13:37 PM 41.6381 -108.5919 263° West 431 496 38,000  Level Salt Lake Center
Thu 10:14:39 PM 41.6189 -108.7642 262° West 423 487 38,000  Level Salt Lake Center
Thu 10:15:41 PM 41.6033 -108.9114 262° West 421 484 38,000  Level Salt Lake Center
Thu 10:16:42 PM 41.5850 -109.0808 262° West 419 482 38,000  Level Salt Lake Center
Thu 10:17:44 PM 41.5686 -109.2242 261° West 417 480 38,000  Level Salt Lake Center
Thu 10:23:33 PM 41.4660 -110.1130 261° West 414 476 38,000  Level FlightAware ADS-B
Thu 10:24:28 PM 41.4510 -110.2450 261° West 414 476 38,000  Level FlightAware ADS-B
Thu 10:25:08 PM 41.4410 -110.3310 261° West 414 476 38,000  Level FlightAware ADS-B
Thu 10:25:53 PM 41.4240 -110.4600 260° West 417 480 38,000  Level FlightAware ADS-B
Thu 10:26:33 PM 41.4110 -110.5670 261° West 417 480 38,000  Level FlightAware ADS-B
Thu 10:27:28 PM 41.3940 -110.7080 261° West 416 479 38,000  Level FlightAware ADS-B
Thu 10:28:13 PM 41.3800 -110.8200 261° West 415 478 38,000  Level FlightAware ADS-B
Thu 10:28:53 PM 41.3670 -110.9220 260° West 414 476 38,000  Level FlightAware ADS-B
Thu 10:29:33 PM 41.3540 -111.0220 260° West 412 474 38,000  Level FlightAware ADS-B
Thu 10:30:18 PM 41.3400 -111.1340 261° West 410 472 38,000  Level FlightAware ADS-B
Thu 10:30:58 PM 41.3270 -111.2330 260° West 408 470 38,000  Level FlightAware ADS-B
Thu 10:31:43 PM 41.3130 -111.3440 261° West 409 471 38,000  Level FlightAware ADS-B
Thu 10:32:23 PM 41.3000 -111.4430 260° West 407 468 38,000  Level FlightAware ADS-B
Thu 10:33:08 PM 41.2860 -111.5520 260° West 403 464 38,000  Level FlightAware ADS-B
Thu 10:33:48 PM 41.2720 -111.6510 259° West 402 463 38,000  Level FlightAware ADS-B
Thu 10:34:33 PM 41.2570 -111.7610 260° West 401 461 38,000  Level FlightAware ADS-B
Thu 10:35:13 PM 41.2450 -111.8580 261° West 401 461 38,000  Level FlightAware ADS-B
Thu 10:35:58 PM 41.2300 -111.9670 260° West 400 460 38,000  Level FlightAware ADS-B
Thu 10:36:38 PM 41.2160 -112.0650 259° West 400 460 38,000  Level FlightAware ADS-B
Thu 10:37:18 PM 41.2030 -112.1600 260° West 400 460 38,000  Level FlightAware ADS-B
Thu 10:38:03 PM 41.1880 -112.2700 260° West 400 460 38,000  Level FlightAware ADS-B
Thu 10:38:43 PM 41.1750 -112.3650 260° West 400 460 38,000  Level FlightAware ADS-B
Thu 10:39:28 PM 41.1600 -112.4740 260° West 399 459 38,000  Level FlightAware ADS-B
Thu 10:40:08 PM 41.1460 -112.5710 259° West 399 459 38,000  Level FlightAware ADS-B
Thu 10:40:43 PM 41.1340 -112.6560 259° West 399 459 38,000  Level FlightAware ADS-B
Thu 10:41:33 PM 41.1170 -112.7760 259° West 400 460 38,000  Level FlightAware ADS-B
Thu 10:42:13 PM 41.1020 -112.8740 259° West 400 460 38,000  Level FlightAware ADS-B
Thu 10:42:58 PM 41.0870 -112.9810 259° West 400 460 38,000  Level FlightAware ADS-B
Thu 10:43:38 PM 41.0730 -113.0810 260° West 401 461 38,000  Level FlightAware ADS-B
Thu 10:44:18 PM 41.0590 -113.1760 259° West 400 460 38,000  Level FlightAware ADS-B
Thu 10:45:03 PM 41.0420 -113.2860 258° West 402 463 38,000  Level FlightAware ADS-B
Thu 10:45:43 PM 41.0280 -113.3800 259° West 400 460 38,000  Level FlightAware ADS-B
Thu 10:46:23 PM 41.0150 -113.4700 259° West 402 463 38,000  Level FlightAware ADS-B
Thu 10:47:08 PM 40.9970 -113.5860 258° West 416 479 38,000  Level FlightAware ADS-B
Thu 10:47:43 PM 40.9850 -113.6610 258° West 417 480 38,000  Level FlightAware ADS-B
Thu 10:48:33 PM 40.9680 -113.7670 258° West 417 480 38,000  Level FlightAware ADS-B
Thu 10:49:13 PM 40.9500 -113.8970 260° West 38,000  Level FlightAware ADS-B
Thu 10:49:53 PM 40.9350 -113.9930 258° West 414 476 38,000  Level FlightAware ADS-B
Thu 10:50:53 PM 40.9150 -114.1190 258° West 414 476 38,000  Level FlightAware ADS-B
Thu 10:51:33 PM 40.9010 -114.2040 258° West 414 476 38,000  Level FlightAware ADS-B
Thu 10:52:13 PM 40.8880 -114.2880 258° West 414 476 38,000  Level FlightAware ADS-B
Thu 10:52:53 PM 40.8740 -114.3720 258° West 414 476 38,000  Level FlightAware ADS-B
Thu 10:53:33 PM 40.8600 -114.4560 258° West 414 476 38,000  Level FlightAware ADS-B
Thu 10:54:23 PM 40.8440 -114.5620 259° West 414 476 38,000  Level FlightAware ADS-B
Thu 10:55:03 PM 40.8300 -114.6460 258° West 414 476 38,000  Level FlightAware ADS-B
Thu 10:55:43 PM 40.8160 -114.7300 258° West 414 476 38,000  Level FlightAware ADS-B
Thu 10:56:23 PM 40.8030 -114.8140 258° West 414 476 38,000  Level FlightAware ADS-B
Thu 10:57:03 PM 40.7890 -114.8980 258° West 414 476 38,000  Level FlightAware ADS-B
Thu 10:57:53 PM 40.7720 -115.0030 258° West 414 476 38,000  Level FlightAware ADS-B
Thu 10:58:33 PM 40.7590 -115.0880 259° West 414 476 38,000  Level FlightAware ADS-B
Thu 10:59:13 PM 40.7450 -115.1720 258° West 414 476 38,000  Level FlightAware ADS-B
Thu 10:59:53 PM 40.6950 -115.4708 258° West 417 480 38,000  Level Salt Lake Center
Thu 11:00:55 PM 40.6669 -115.6389 258° West 420 483 38,000  Level Salt Lake Center
Thu 11:01:56 PM 40.6417 -115.7814 257° West 418 481 38,000  Level Salt Lake Center
Thu 11:02:58 PM 40.6122 -115.9478 257° West 417 480 38,000  Level Salt Lake Center
Thu 11:04:00 PM 40.5894 -116.0908 258° West 418 481 38,000  Level Salt Lake Center
Thu 11:05:01 PM 40.5633 -116.2336 257° West 419 482 38,000  Level Salt Lake Center
Thu 11:06:03 PM 40.5350 -116.4006 257° West 419 482 38,000  Level Salt Lake Center
Thu 11:07:04 PM 40.5092 -116.5428 257° West 418 481 38,000  Level Salt Lake Center
Thu 11:08:06 PM 40.4797 -116.7072 257° West 417 480 38,000  Level Salt Lake Center
Thu 11:09:07 PM 40.4519 -116.8567 256° West 416 479 38,000  Level Salt Lake Center
Thu 11:10:09 PM 40.4256 -117.0044 257° West 413 475 38,000  Level Salt Lake Center
Thu 11:11:10 PM 40.4000 -117.1464 257° West 416 479 38,000 -195 Level Salt Lake Center
Thu 11:12:12 PM 40.3689 -117.3092 256° West 414 476 37,600 -634 Descending Salt Lake Center
Thu 11:13:13 PM 40.3425 -117.4506 256° West 416 479 36,700 -878 Descending Salt Lake Center
Thu 11:14:15 PM 40.3161 -117.5903 256° West 414 476 35,800 -976 Descending Salt Lake Center
Thu 11:15:16 PM 40.2639 -117.7419 246° West 416 479 34,700 -984 Descending Salt Lake Center
Thu 11:16:17 PM 40.1997 -117.8619 235° Southwest 419 482 33,800 -988 Descending Salt Lake Center
Thu 11:16:41 PM 40.1664 -117.9275 236° Southwest 416 479 33,300 -1,059 Descending Oakland Center
Thu 11:17:42 PM 40.1003 -118.0564 236° Southwest 422 486 32,300 -934 Descending Oakland Center
Thu 11:18:43 PM 40.0358 -118.1833 236° Southwest 422 486 31,400 -927 Descending Oakland Center
Thu 11:19:45 PM 39.9689 -118.3117 236° Southwest 426 490 30,400 -1,366 Descending Oakland Center
Thu 11:20:46 PM 39.9022 -118.4383 236° Southwest 426 490 28,600 -2,016 Descending Oakland Center
Thu 11:21:47 PM 39.8381 -118.5606 236° Southwest 413 475 26,300 -2,262 Descending Oakland Center
Thu 11:22:48 PM 39.7761 -118.6794 236° Southwest 402 463 24,000 -2,213 Descending Oakland Center
Thu 11:23:49 PM 39.7156 -118.7947 236° Southwest 391 450 21,800 -1,967 Descending Oakland Center
Thu 11:24:50 PM 39.6567 -118.9053 235° Southwest 378 435 20,000 -2,066 Descending Oakland Center
Thu 11:25:51 PM 39.5853 -119.0403 236° Southwest 382 440 17,600 -2,213 Descending Oakland Center
Thu 11:26:52 PM 39.5281 -119.1481 235° Southwest 371 427 15,500 -1,463 Descending Oakland Center
Thu 11:27:54 PM 39.4661 -119.2458 231° Southwest 357 411 14,600 -829 Descending Oakland Center
Thu 11:28:55 PM 39.3975 -119.3269 222° Southwest 340 391 13,800 -1,180 Descending Oakland Center
Thu 11:29:56 PM 39.3353 -119.3997 222° Southwest 312 359 12,200 -1,426 Descending Oakland Center
Thu 11:30:57 PM 39.2781 -119.4750 226° Southwest 301 346 10,900 -590 Descending Oakland Center
Thu 11:31:58 PM 39.2211 -119.5497 225° Southwest 296 341 11,000  Climbing Oakland Center
Thu 11:32:59 PM 39.1653 -119.6217 225° Southwest 291 335 10,900 -689 Descending Oakland Center
Thu 11:34:00 PM 39.1597 -119.7083 265° West 280 322 9,600 -662 Descending Oakland Center
Thu 11:39:38 PM 39.3620 -119.7670 265° West 186 214 6,500 -630 Descending FlightAware ADS-B
Thu 11:39:43 PM 39.4070 -119.7670 360° North 171 197 6,000 -1,371 Descending FlightAware ADS-B
Thu 11:40:13 PM 39.4200 -119.7670 360° North 152 175 5,700 -500 Descending FlightAware ADS-B
Thu 11:40:43 PM 39.4320 -119.7670 360° North 150 173 5,500 -545 Descending FlightAware ADS-B
Thu 11:41:08 PM 39.4460 -119.7670 360° North 151 174 5,200 -480 Descending FlightAware ADS-B
Thu 11:41:33 PM 39.4560 -119.7670 360° North 151 174 5,100 -240 Descending FlightAware ADS-B

Login

Don't have an account? Register now (free) for customized features, flight alerts, and more!